sensor_id;sensor_type;location;lat;lon;timestamp;pressure;altitude;pressure_sealevel;temperature
70389;BMP280;58659;49.050;8.530;2022-12-20T00:01:31;100337.47;;;3.05
70389;BMP280;58659;49.050;8.530;2022-12-20T00:03:58;100319.28;;;2.96
70389;BMP280;58659;49.050;8.530;2022-12-20T00:06:24;100320.69;;;3.08
70389;BMP280;58659;49.050;8.530;2022-12-20T00:09:08;100280.47;;;2.88
70389;BMP280;58659;49.050;8.530;2022-12-20T00:11:38;100255.81;;;2.95
70389;BMP280;58659;49.050;8.530;2022-12-20T00:14:03;100240.59;;;3.13
70389;BMP280;58659;49.050;8.530;2022-12-20T00:16:29;100244.97;;;3.12
70389;BMP280;58659;49.050;8.530;2022-12-20T00:19:00;100258.06;;;3.16
70389;BMP280;58659;49.050;8.530;2022-12-20T00:21:27;100254.00;;;2.96
70389;BMP280;58659;49.050;8.530;2022-12-20T00:23:53;100227.63;;;2.99
70389;BMP280;58659;49.050;8.530;2022-12-20T00:26:22;100228.31;;;3.05
70389;BMP280;58659;49.050;8.530;2022-12-20T00:28:47;100207.66;;;3.05
70389;BMP280;58659;49.050;8.530;2022-12-20T00:31:14;100206.53;;;3.11
70389;BMP280;58659;49.050;8.530;2022-12-20T00:33:40;100199.91;;;2.91
70389;BMP280;58659;49.050;8.530;2022-12-20T00:36:06;100192.31;;;2.81
70389;BMP280;58659;49.050;8.530;2022-12-20T00:38:32;100183.94;;;2.89
70389;BMP280;58659;49.050;8.530;2022-12-20T00:41:13;100174.19;;;3.00
70389;BMP280;58659;49.050;8.530;2022-12-20T00:43:40;100165.22;;;2.97
70389;BMP280;58659;49.050;8.530;2022-12-20T00:46:07;100150.88;;;3.05
70389;BMP280;58659;49.050;8.530;2022-12-20T00:48:33;100124.91;;;3.15
70389;BMP280;58659;49.050;8.530;2022-12-20T00:51:00;100117.06;;;3.20
70389;BMP280;58659;49.050;8.530;2022-12-20T00:53:26;100114.59;;;3.15
70389;BMP280;58659;49.050;8.530;2022-12-20T00:55:51;100124.53;;;3.21
70389;BMP280;58659;49.050;8.530;2022-12-20T00:58:17;100117.44;;;3.27
70389;BMP280;58659;49.050;8.530;2022-12-20T01:00:42;100112.81;;;3.24
70389;BMP280;58659;49.050;8.530;2022-12-20T01:03:08;100095.25;;;3.26
70389;BMP280;58659;49.050;8.530;2022-12-20T01:05:33;100116.66;;;3.26
70389;BMP280;58659;49.050;8.530;2022-12-20T01:07:59;100112.00;;;3.15
70389;BMP280;58659;49.050;8.530;2022-12-20T01:10:24;100136.25;;;3.00
70389;BMP280;58659;49.050;8.530;2022-12-20T01:12:50;100120.47;;;3.02
70389;BMP280;58659;49.050;8.530;2022-12-20T01:15:15;100118.66;;;3.02
70389;BMP280;58659;49.050;8.530;2022-12-20T01:17:41;100150.66;;;2.74
70389;BMP280;58659;49.050;8.530;2022-12-20T01:20:07;100142.41;;;2.72
70389;BMP280;58659;49.050;8.530;2022-12-20T01:22:32;100155.19;;;2.63
70389;BMP280;58659;49.050;8.530;2022-12-20T01:24:57;100134.97;;;2.70
70389;BMP280;58659;49.050;8.530;2022-12-20T01:27:23;100118.03;;;2.64
70389;BMP280;58659;49.050;8.530;2022-12-20T01:29:48;100085.63;;;2.90
70389;BMP280;58659;49.050;8.530;2022-12-20T01:32:14;100085.69;;;2.85
70389;BMP280;58659;49.050;8.530;2022-12-20T01:34:39;100101.69;;;2.69
70389;BMP280;58659;49.050;8.530;2022-12-20T01:37:04;100093.00;;;2.65
70389;BMP280;58659;49.050;8.530;2022-12-20T01:39:29;100084.03;;;2.62
70389;BMP280;58659;49.050;8.530;2022-12-20T01:41:55;100078.97;;;2.57
70389;BMP280;58659;49.050;8.530;2022-12-20T01:46:47;100035.28;;;2.47
70389;BMP280;58659;49.050;8.530;2022-12-20T01:51:46;100019.09;;;2.60
70389;BMP280;58659;49.050;8.530;2022-12-20T01:54:39;100020.13;;;2.73
70389;BMP280;58659;49.050;8.530;2022-12-20T01:57:09;100032.66;;;2.79
70389;BMP280;58659;49.050;8.530;2022-12-20T01:59:37;100047.06;;;2.80
70389;BMP280;58659;49.050;8.530;2022-12-20T02:02:06;100060.28;;;2.92
70389;BMP280;58659;49.050;8.530;2022-12-20T02:04:33;100055.00;;;2.97
70389;BMP280;58659;49.050;8.530;2022-12-20T02:06:59;100057.78;;;3.01
70389;BMP280;58659;49.050;8.530;2022-12-20T02:09:26;100055.69;;;3.03
70389;BMP280;58659;49.050;8.530;2022-12-20T02:12:11;100054.91;;;3.16
70389;BMP280;58659;49.050;8.530;2022-12-20T02:31:23;100002.00;;;2.91
70389;BMP280;58659;49.050;8.530;2022-12-20T02:33:51;100007.59;;;2.93
70389;BMP280;58659;49.050;8.530;2022-12-20T02:36:17;100003.59;;;3.01
70389;BMP280;58659;49.050;8.530;2022-12-20T02:38:43;99995.31;;;2.90
70389;BMP280;58659;49.050;8.530;2022-12-20T02:41:19;99984.75;;;3.01
70389;BMP280;58659;49.050;8.530;2022-12-20T02:43:51;99993.00;;;2.75
70389;BMP280;58659;49.050;8.530;2022-12-20T02:46:37;99989.47;;;2.85
70389;BMP280;58659;49.050;8.530;2022-12-20T02:49:09;99996.91;;;2.59
70389;BMP280;58659;49.050;8.530;2022-12-20T02:51:36;99969.03;;;2.61
70389;BMP280;58659;49.050;8.530;2022-12-20T02:54:03;99972.38;;;2.62
70389;BMP280;58659;49.050;8.530;2022-12-20T02:56:35;99969.88;;;2.70
70389;BMP280;58659;49.050;8.530;2022-12-20T02:59:10;99971.78;;;2.65
70389;BMP280;58659;49.050;8.530;2022-12-20T03:01:45;99964.16;;;2.73
70389;BMP280;58659;49.050;8.530;2022-12-20T03:04:12;99963.66;;;2.85
70389;BMP280;58659;49.050;8.530;2022-12-20T03:06:39;99955.16;;;2.84
70389;BMP280;58659;49.050;8.530;2022-12-20T03:09:04;99967.97;;;2.89
70389;BMP280;58659;49.050;8.530;2022-12-20T03:11:29;99969.66;;;3.08
70389;BMP280;58659;49.050;8.530;2022-12-20T03:13:55;99986.56;;;3.00
70389;BMP280;58659;49.050;8.530;2022-12-20T03:16:20;99989.25;;;2.95
70389;BMP280;58659;49.050;8.530;2022-12-20T03:18:46;99982.06;;;3.06
70389;BMP280;58659;49.050;8.530;2022-12-20T03:21:12;99985.13;;;3.08
70389;BMP280;58659;49.050;8.530;2022-12-20T03:23:37;99982.06;;;3.06
70389;BMP280;58659;49.050;8.530;2022-12-20T03:26:03;99987.59;;;3.13
70389;BMP280;58659;49.050;8.530;2022-12-20T03:28:28;99997.53;;;3.19
70389;BMP280;58659;49.050;8.530;2022-12-20T03:30:54;99994.75;;;3.16
70389;BMP280;58659;49.050;8.530;2022-12-20T03:33:19;100000.41;;;3.18
70389;BMP280;58659;49.050;8.530;2022-12-20T03:35:46;99999.44;;;3.27
70389;BMP280;58659;49.050;8.530;2022-12-20T03:38:11;99983.06;;;3.32
70389;BMP280;58659;49.050;8.530;2022-12-20T03:40:36;99985.25;;;3.38
70389;BMP280;58659;49.050;8.530;2022-12-20T03:43:01;99999.16;;;3.51
70389;BMP280;58659;49.050;8.530;2022-12-20T03:45:27;100003.56;;;3.51
70389;BMP280;58659;49.050;8.530;2022-12-20T03:47:52;100010.06;;;3.48
70389;BMP280;58659;49.050;8.530;2022-12-20T03:50:17;100011.25;;;3.42
70389;BMP280;58659;49.050;8.530;2022-12-20T03:52:43;100016.03;;;3.35
70389;BMP280;58659;49.050;8.530;2022-12-20T03:55:08;99999.50;;;3.36
70389;BMP280;58659;49.050;8.530;2022-12-20T03:57:34;99997.47;;;3.47
70389;BMP280;58659;49.050;8.530;2022-12-20T03:59:59;100009.31;;;3.48
70389;BMP280;58659;49.050;8.530;2022-12-20T04:02:25;100020.28;;;3.53
70389;BMP280;58659;49.050;8.530;2022-12-20T04:04:50;100021.97;;;3.35
70389;BMP280;58659;49.050;8.530;2022-12-20T04:07:15;100012.63;;;3.26
70389;BMP280;58659;49.050;8.530;2022-12-20T04:09:41;100002.56;;;3.38
70389;BMP280;58659;49.050;8.530;2022-12-20T04:12:06;100000.44;;;3.40
70389;BMP280;58659;49.050;8.530;2022-12-20T04:14:31;100003.22;;;3.44
70389;BMP280;58659;49.050;8.530;2022-12-20T04:16:57;100002.47;;;3.43
70389;BMP280;58659;49.050;8.530;2022-12-20T04:19:22;100012.91;;;3.38
70389;BMP280;58659;49.050;8.530;2022-12-20T04:21:48;100001.59;;;3.34
70389;BMP280;58659;49.050;8.530;2022-12-20T04:24:13;99976.47;;;3.26
70389;BMP280;58659;49.050;8.530;2022-12-20T04:26:39;99978.72;;;3.41
70389;BMP280;58659;49.050;8.530;2022-12-20T04:29:04;99960.19;;;3.39
70389;BMP280;58659;49.050;8.530;2022-12-20T04:31:30;99961.00;;;3.48
70389;BMP280;58659;49.050;8.530;2022-12-20T04:33:55;99966.16;;;3.48
70389;BMP280;58659;49.050;8.530;2022-12-20T04:36:21;99973.19;;;3.34
70389;BMP280;58659;49.050;8.530;2022-12-20T04:38:46;99961.00;;;3.26
70389;BMP280;58659;49.050;8.530;2022-12-20T04:41:12;99945.75;;;3.38
70389;BMP280;58659;49.050;8.530;2022-12-20T04:43:48;99955.38;;;3.46
70389;BMP280;58659;49.050;8.530;2022-12-20T04:46:13;99958.78;;;3.33
70389;BMP280;58659;49.050;8.530;2022-12-20T04:48:38;99954.28;;;3.25
70389;BMP280;58659;49.050;8.530;2022-12-20T04:51:04;99943.97;;;3.25
70389;BMP280;58659;49.050;8.530;2022-12-20T04:53:30;99938.31;;;3.23
70389;BMP280;58659;49.050;8.530;2022-12-20T04:56:25;99922.69;;;3.19
70389;BMP280;58659;49.050;8.530;2022-12-20T04:58:53;99922.91;;;3.31
70389;BMP280;58659;49.050;8.530;2022-12-20T05:01:19;99918.63;;;3.49
70389;BMP280;58659;49.050;8.530;2022-12-20T05:03:45;99934.16;;;3.58
70389;BMP280;58659;49.050;8.530;2022-12-20T05:06:11;99931.69;;;3.53
70389;BMP280;58659;49.050;8.530;2022-12-20T05:08:37;99940.22;;;3.53
70389;BMP280;58659;49.050;8.530;2022-12-20T05:11:03;99952.78;;;3.46
70389;BMP280;58659;49.050;8.530;2022-12-20T05:13:28;99949.88;;;3.39
70389;BMP280;58659;49.050;8.530;2022-12-20T05:15:55;99944.56;;;3.22
70389;BMP280;58659;49.050;8.530;2022-12-20T05:18:20;99938.28;;;3.14
70389;BMP280;58659;49.050;8.530;2022-12-20T05:20:46;99926.94;;;3.24
70389;BMP280;58659;49.050;8.530;2022-12-20T05:23:12;99899.41;;;3.33
70389;BMP280;58659;49.050;8.530;2022-12-20T05:25:56;99895.66;;;3.48
70389;BMP280;58659;49.050;8.530;2022-12-20T05:28:28;99894.69;;;3.57
70389;BMP280;58659;49.050;8.530;2022-12-20T05:30:54;99896.94;;;3.59
70389;BMP280;58659;49.050;8.530;2022-12-20T05:33:19;99909.75;;;3.64
70389;BMP280;58659;49.050;8.530;2022-12-20T05:35:45;99918.09;;;3.61
70389;BMP280;58659;49.050;8.530;2022-12-20T05:38:10;99909.75;;;3.64
70389;BMP280;58659;49.050;8.530;2022-12-20T05:40:36;99895.38;;;3.71
70389;BMP280;58659;49.050;8.530;2022-12-20T05:43:02;99905.09;;;3.74
70389;BMP280;58659;49.050;8.530;2022-12-20T05:45:27;99897.81;;;3.76
70389;BMP280;58659;49.050;8.530;2022-12-20T05:47:53;99903.78;;;3.86
70389;BMP280;58659;49.050;8.530;2022-12-20T05:50:18;99900.31;;;3.90
70389;BMP280;58659;49.050;8.530;2022-12-20T05:52:43;99912.72;;;3.79
70389;BMP280;58659;49.050;8.530;2022-12-20T05:55:09;99908.13;;;3.76
70389;BMP280;58659;49.050;8.530;2022-12-20T05:57:35;99890.53;;;3.78
70389;BMP280;58659;49.050;8.530;2022-12-20T06:00:01;99868.97;;;3.83
70389;BMP280;58659;49.050;8.530;2022-12-20T06:02:26;99862.22;;;4.04
70389;BMP280;58659;49.050;8.530;2022-12-20T06:04:52;99862.22;;;4.13
70389;BMP280;58659;49.050;8.530;2022-12-20T06:07:17;99866.19;;;4.10
70389;BMP280;58659;49.050;8.530;2022-12-20T06:09:43;99870.41;;;4.06
70389;BMP280;58659;49.050;8.530;2022-12-20T06:12:08;99881.53;;;4.07
70389;BMP280;58659;49.050;8.530;2022-12-20T06:14:34;99883.66;;;4.05
70389;BMP280;58659;49.050;8.530;2022-12-20T06:17:00;99873.31;;;4.05
70389;BMP280;58659;49.050;8.530;2022-12-20T06:19:25;99854.19;;;4.23
70389;BMP280;58659;49.050;8.530;2022-12-20T06:21:50;99847.38;;;4.36
70389;BMP280;58659;49.050;8.530;2022-12-20T06:24:16;99860.03;;;4.46
70389;BMP280;58659;49.050;8.530;2022-12-20T06:26:41;99851.50;;;4.62
70389;BMP280;58659;49.050;8.530;2022-12-20T06:29:06;99861.09;;;4.79
70389;BMP280;58659;49.050;8.530;2022-12-20T06:31:33;99875.25;;;4.90
70389;BMP280;58659;49.050;8.530;2022-12-20T06:33:58;99897.19;;;4.93
70389;BMP280;58659;49.050;8.530;2022-12-20T06:36:24;99904.94;;;4.84
70389;BMP280;58659;49.050;8.530;2022-12-20T06:38:49;99914.09;;;4.90
70389;BMP280;58659;49.050;8.530;2022-12-20T06:41:15;99920.75;;;4.91
70389;BMP280;58659;49.050;8.530;2022-12-20T06:43:40;99927.78;;;4.91
70389;BMP280;58659;49.050;8.530;2022-12-20T06:46:05;99929.31;;;4.92
70389;BMP280;58659;49.050;8.530;2022-12-20T06:48:31;99934.94;;;4.94
70389;BMP280;58659;49.050;8.530;2022-12-20T06:50:56;99952.00;;;4.86
70389;BMP280;58659;49.050;8.530;2022-12-20T06:53:22;99948.19;;;4.92
70389;BMP280;58659;49.050;8.530;2022-12-20T06:55:47;99964.03;;;5.08
70389;BMP280;58659;49.050;8.530;2022-12-20T06:58:14;99986.59;;;5.16
70389;BMP280;58659;49.050;8.530;2022-12-20T07:00:40;99992.25;;;5.18
70389;BMP280;58659;49.050;8.530;2022-12-20T07:03:05;100002.84;;;5.08
70389;BMP280;58659;49.050;8.530;2022-12-20T07:05:30;100008.03;;;5.08
70389;BMP280;58659;49.050;8.530;2022-12-20T07:07:56;100006.25;;;5.17
70389;BMP280;58659;49.050;8.530;2022-12-20T07:10:21;100018.88;;;5.27
70389;BMP280;58659;49.050;8.530;2022-12-20T07:12:46;100003.81;;;5.29
70389;BMP280;58659;49.050;8.530;2022-12-20T07:15:11;100022.38;;;5.31
70389;BMP280;58659;49.050;8.530;2022-12-20T07:17:37;100024.53;;;5.12
70389;BMP280;58659;49.050;8.530;2022-12-20T07:20:02;100013.53;;;4.98
70389;BMP280;58659;49.050;8.530;2022-12-20T07:22:28;99990.69;;;5.00
70389;BMP280;58659;49.050;8.530;2022-12-20T07:24:53;99996.19;;;5.07
70389;BMP280;58659;49.050;8.530;2022-12-20T07:27:18;100019.91;;;5.00
70389;BMP280;58659;49.050;8.530;2022-12-20T07:29:43;100049.75;;;4.81
70389;BMP280;58659;49.050;8.530;2022-12-20T07:32:10;100060.97;;;4.67
70389;BMP280;58659;49.050;8.530;2022-12-20T07:34:36;100067.59;;;4.51
70389;BMP280;58659;49.050;8.530;2022-12-20T07:37:01;100061.53;;;4.25
70389;BMP280;58659;49.050;8.530;2022-12-20T07:39:27;100042.06;;;4.27
70389;BMP280;58659;49.050;8.530;2022-12-20T07:41:54;100016.50;;;4.26
70389;BMP280;58659;49.050;8.530;2022-12-20T07:44:20;99963.38;;;4.20
70389;BMP280;58659;49.050;8.530;2022-12-20T07:46:45;99914.31;;;4.37
70389;BMP280;58659;49.050;8.530;2022-12-20T07:49:11;99887.88;;;4.57
70389;BMP280;58659;49.050;8.530;2022-12-20T07:51:40;99886.81;;;4.76
70389;BMP280;58659;49.050;8.530;2022-12-20T07:54:12;99885.75;;;4.85
70389;BMP280;58659;49.050;8.530;2022-12-20T07:56:44;99921.22;;;4.67
70389;BMP280;58659;49.050;8.530;2022-12-20T07:59:12;99908.75;;;4.87
70389;BMP280;58659;49.050;8.530;2022-12-20T08:01:40;99892.75;;;5.02
70389;BMP280;58659;49.050;8.530;2022-12-20T08:04:15;99889.25;;;5.15
70389;BMP280;58659;49.050;8.530;2022-12-20T08:06:42;99893.94;;;5.30
70389;BMP280;58659;49.050;8.530;2022-12-20T08:09:10;99900.16;;;5.46
70389;BMP280;58659;49.050;8.530;2022-12-20T08:11:40;99914.13;;;5.62
70389;BMP280;58659;49.050;8.530;2022-12-20T08:14:07;99947.06;;;5.71
70389;BMP280;58659;49.050;8.530;2022-12-20T08:16:33;99976.47;;;5.66
70389;BMP280;58659;49.050;8.530;2022-12-20T08:18:59;99993.72;;;5.71
70389;BMP280;58659;49.050;8.530;2022-12-20T08:21:24;100015.69;;;5.64
70389;BMP280;58659;49.050;8.530;2022-12-20T08:23:49;100037.34;;;5.51
70389;BMP280;58659;49.050;8.530;2022-12-20T08:28:41;100043.09;;;5.14
70389;BMP280;58659;49.050;8.530;2022-12-20T08:31:08;100027.25;;;5.07
70389;BMP280;58659;49.050;8.530;2022-12-20T08:33:34;99997.69;;;5.08
70389;BMP280;58659;49.050;8.530;2022-12-20T08:36:03;99980.94;;;5.14
70389;BMP280;58659;49.050;8.530;2022-12-20T08:38:29;99959.31;;;5.36
70389;BMP280;58659;49.050;8.530;2022-12-20T08:40:55;99964.31;;;5.49
70389;BMP280;58659;49.050;8.530;2022-12-20T08:43:25;99989.59;;;5.61
70389;BMP280;58659;49.050;8.530;2022-12-20T08:45:52;99990.63;;;5.86
70389;BMP280;58659;49.050;8.530;2022-12-20T08:48:18;100002.75;;;6.11
70389;BMP280;58659;49.050;8.530;2022-12-20T08:50:44;100021.78;;;6.24
70389;BMP280;58659;49.050;8.530;2022-12-20T08:53:09;100034.88;;;6.27
70389;BMP280;58659;49.050;8.530;2022-12-20T08:55:34;100032.09;;;6.32
70389;BMP280;58659;49.050;8.530;2022-12-20T08:58:00;100025.84;;;6.33
70389;BMP280;58659;49.050;8.530;2022-12-20T09:00:25;100021.44;;;6.25
70389;BMP280;58659;49.050;8.530;2022-12-20T09:02:52;100026.97;;;6.15
70389;BMP280;58659;49.050;8.530;2022-12-20T09:05:18;100042.13;;;6.13
70389;BMP280;58659;49.050;8.530;2022-12-20T09:07:44;100043.34;;;6.07
70389;BMP280;58659;49.050;8.530;2022-12-20T09:10:09;100039.41;;;5.92
70389;BMP280;58659;49.050;8.530;2022-12-20T09:12:36;100026.94;;;5.60
70389;BMP280;58659;49.050;8.530;2022-12-20T09:15:02;100007.75;;;5.70
70389;BMP280;58659;49.050;8.530;2022-12-20T09:17:28;99976.13;;;5.85
70389;BMP280;58659;49.050;8.530;2022-12-20T09:19:54;100001.00;;;5.86
70389;BMP280;58659;49.050;8.530;2022-12-20T09:22:39;100007.25;;;5.85
70389;BMP280;58659;49.050;8.530;2022-12-20T09:25:05;100017.59;;;5.93
70389;BMP280;58659;49.050;8.530;2022-12-20T09:27:31;100012.53;;;5.97
70389;BMP280;58659;49.050;8.530;2022-12-20T09:29:56;100019.53;;;6.05
70389;BMP280;58659;49.050;8.530;2022-12-20T09:32:21;99997.56;;;6.11
70389;BMP280;58659;49.050;8.530;2022-12-20T09:34:47;100004.19;;;6.29
70389;BMP280;58659;49.050;8.530;2022-12-20T09:37:12;100008.72;;;6.41
70389;BMP280;58659;49.050;8.530;2022-12-20T09:39:37;100021.41;;;6.42
70389;BMP280;58659;49.050;8.530;2022-12-20T09:42:06;100031.59;;;6.47
70389;BMP280;58659;49.050;8.530;2022-12-20T09:44:38;100036.78;;;6.47
70389;BMP280;58659;49.050;8.530;2022-12-20T09:47:07;100039.97;;;6.44
70389;BMP280;58659;49.050;8.530;2022-12-20T09:49:35;100032.50;;;6.51
70389;BMP280;58659;49.050;8.530;2022-12-20T09:52:42;100049.84;;;6.60
70389;BMP280;58659;49.050;8.530;2022-12-20T09:58:13;100065.09;;;6.61
70389;BMP280;58659;49.050;8.530;2022-12-20T10:00:45;100066.22;;;6.51
70389;BMP280;58659;49.050;8.530;2022-12-20T10:03:28;100069.78;;;6.38
70389;BMP280;58659;49.050;8.530;2022-12-20T10:05:57;100065.56;;;6.25
70389;BMP280;58659;49.050;8.530;2022-12-20T10:11:09;100016.94;;;6.05
70389;BMP280;58659;49.050;8.530;2022-12-20T10:16:39;99999.78;;;6.21
70389;BMP280;58659;49.050;8.530;2022-12-20T10:22:13;99987.13;;;6.28
70389;BMP280;58659;49.050;8.530;2022-12-20T10:24:44;99995.38;;;6.51
70389;BMP280;58659;49.050;8.530;2022-12-20T10:27:19;100000.84;;;6.58
70389;BMP280;58659;49.050;8.530;2022-12-20T10:29:45;100010.75;;;6.65
70389;BMP280;58659;49.050;8.530;2022-12-20T10:32:14;100016.69;;;6.65
70389;BMP280;58659;49.050;8.530;2022-12-20T10:34:51;100032.78;;;6.79
70389;BMP280;58659;49.050;8.530;2022-12-20T10:37:19;100033.34;;;6.85
70389;BMP280;58659;49.050;8.530;2022-12-20T10:39:49;100022.47;;;6.91
70389;BMP280;58659;49.050;8.530;2022-12-20T10:42:37;100017.09;;;6.96
70389;BMP280;58659;49.050;8.530;2022-12-20T10:45:09;100015.44;;;6.92
70389;BMP280;58659;49.050;8.530;2022-12-20T10:47:46;100011.66;;;6.89
70389;BMP280;58659;49.050;8.530;2022-12-20T10:50:15;100022.34;;;6.88
70389;BMP280;58659;49.050;8.530;2022-12-20T10:52:42;100010.13;;;6.88
70389;BMP280;58659;49.050;8.530;2022-12-20T10:55:34;100001.38;;;6.93
70389;BMP280;58659;49.050;8.530;2022-12-20T10:58:22;99998.47;;;6.94
70389;BMP280;58659;49.050;8.530;2022-12-20T11:01:19;99988.13;;;6.86
70389;BMP280;58659;49.050;8.530;2022-12-20T11:06:19;99982.19;;;6.65
70389;BMP280;58659;49.050;8.530;2022-12-20T11:08:45;99985.31;;;6.49
70389;BMP280;58659;49.050;8.530;2022-12-20T11:11:13;99966.91;;;6.42
70389;BMP280;58659;49.050;8.530;2022-12-20T11:13:40;99948.91;;;6.58
70389;BMP280;58659;49.050;8.530;2022-12-20T11:16:25;99944.94;;;6.61
70389;BMP280;58659;49.050;8.530;2022-12-20T11:21:36;99943.88;;;6.82
70389;BMP280;58659;49.050;8.530;2022-12-20T11:35:13;99931.19;;;7.01
70389;BMP280;58659;49.050;8.530;2022-12-20T11:40:35;99950.41;;;7.21
70389;BMP280;58659;49.050;8.530;2022-12-20T11:43:37;99949.06;;;7.36
70389;BMP280;58659;49.050;8.530;2022-12-20T11:46:29;99946.34;;;7.44
70389;BMP280;58659;49.050;8.530;2022-12-20T11:52:18;99948.13;;;7.53
70389;BMP280;58659;49.050;8.530;2022-12-20T11:55:06;99946.63;;;7.64
70389;BMP280;58659;49.050;8.530;2022-12-20T11:57:41;99941.88;;;7.78
70389;BMP280;58659;49.050;8.530;2022-12-20T12:00:12;99939.38;;;7.81
70389;BMP280;58659;49.050;8.530;2022-12-20T12:05:28;99928.84;;;7.66
70389;BMP280;58659;49.050;8.530;2022-12-20T12:08:02;99929.50;;;7.63
70389;BMP280;58659;49.050;8.530;2022-12-20T12:10:43;99933.59;;;7.76
70389;BMP280;58659;49.050;8.530;2022-12-20T12:13:24;99929.09;;;7.85
70389;BMP280;58659;49.050;8.530;2022-12-20T12:15:57;99931.78;;;7.76
70389;BMP280;58659;49.050;8.530;2022-12-20T12:18:30;99932.53;;;7.77
70389;BMP280;58659;49.050;8.530;2022-12-20T12:26:17;99930.78;;;7.57
70389;BMP280;58659;49.050;8.530;2022-12-20T12:28:53;99917.75;;;7.44
70389;BMP280;58659;49.050;8.530;2022-12-20T12:31:25;99901.47;;;7.23
70389;BMP280;58659;49.050;8.530;2022-12-20T12:34:03;99897.59;;;7.17
70389;BMP280;58659;49.050;8.530;2022-12-20T12:42:12;99855.59;;;7.39
70389;BMP280;58659;49.050;8.530;2022-12-20T12:44:47;99854.53;;;7.40
70389;BMP280;58659;49.050;8.530;2022-12-20T12:47:33;99841.97;;;7.42
70389;BMP280;58659;49.050;8.530;2022-12-20T12:50:01;99837.00;;;7.49
70389;BMP280;58659;49.050;8.530;2022-12-20T12:52:41;99838.84;;;7.61
70389;BMP280;58659;49.050;8.530;2022-12-20T12:55:34;99840.69;;;7.61
70389;BMP280;58659;49.050;8.530;2022-12-20T12:58:12;99846.19;;;7.71
70389;BMP280;58659;49.050;8.530;2022-12-20T13:01:03;99846.41;;;7.66
70389;BMP280;58659;49.050;8.530;2022-12-20T13:06:41;99824.53;;;7.55
70389;BMP280;58659;49.050;8.530;2022-12-20T13:11:42;99831.56;;;7.79
70389;BMP280;58659;49.050;8.530;2022-12-20T13:45:45;99796.78;;;7.23
70389;BMP280;58659;49.050;8.530;2022-12-20T13:48:14;99804.06;;;7.29
70389;BMP280;58659;49.050;8.530;2022-12-20T13:50:49;99806.13;;;7.36
70389;BMP280;58659;49.050;8.530;2022-12-20T13:53:18;99810.56;;;7.35
70389;BMP280;58659;49.050;8.530;2022-12-20T13:55:44;99796.91;;;7.26
70389;BMP280;58659;49.050;8.530;2022-12-20T13:58:18;99789.31;;;7.21
70389;BMP280;58659;49.050;8.530;2022-12-20T14:00:45;99781.09;;;7.31
70389;BMP280;58659;49.050;8.530;2022-12-20T14:03:19;99782.19;;;7.30
70389;BMP280;58659;49.050;8.530;2022-12-20T14:05:45;99775.03;;;7.27
70389;BMP280;58659;49.050;8.530;2022-12-20T14:08:20;99780.69;;;7.29
70389;BMP280;58659;49.050;8.530;2022-12-20T14:10:46;99779.47;;;7.27
70389;BMP280;58659;49.050;8.530;2022-12-20T14:13:19;99771.47;;;7.20
70389;BMP280;58659;49.050;8.530;2022-12-20T14:15:45;99755.44;;;7.06
70389;BMP280;58659;49.050;8.530;2022-12-20T14:18:22;99766.16;;;7.04
70389;BMP280;58659;49.050;8.530;2022-12-20T14:20:52;99765.84;;;7.06
70389;BMP280;58659;49.050;8.530;2022-12-20T14:23:21;99755.00;;;7.16
70389;BMP280;58659;49.050;8.530;2022-12-20T14:25:54;99759.25;;;7.20
70389;BMP280;58659;49.050;8.530;2022-12-20T14:28:33;99763.34;;;7.21
70389;BMP280;58659;49.050;8.530;2022-12-20T14:31:00;99755.78;;;7.16
70389;BMP280;58659;49.050;8.530;2022-12-20T14:33:37;99749.72;;;7.12
70389;BMP280;58659;49.050;8.530;2022-12-20T14:36:18;99744.94;;;7.02
70389;BMP280;58659;49.050;8.530;2022-12-20T14:38:46;99727.63;;;7.18
70389;BMP280;58659;49.050;8.530;2022-12-20T14:41:38;99734.22;;;7.16
70389;BMP280;58659;49.050;8.530;2022-12-20T14:46:33;99728.38;;;7.19
70389;BMP280;58659;49.050;8.530;2022-12-20T14:54:33;99730.22;;;7.30
70389;BMP280;58659;49.050;8.530;2022-12-20T14:57:00;99736.72;;;7.36
70389;BMP280;58659;49.050;8.530;2022-12-20T14:59:27;99737.91;;;7.15
70389;BMP280;58659;49.050;8.530;2022-12-20T15:01:54;99739.94;;;7.09
70389;BMP280;58659;49.050;8.530;2022-12-20T15:04:33;99736.94;;;7.07
70389;BMP280;58659;49.050;8.530;2022-12-20T15:07:00;99722.63;;;6.89
70389;BMP280;58659;49.050;8.530;2022-12-20T15:09:26;99718.63;;;6.91
70389;BMP280;58659;49.050;8.530;2022-12-20T15:11:52;99730.44;;;6.89
70389;BMP280;58659;49.050;8.530;2022-12-20T15:16:52;99732.53;;;6.63
70389;BMP280;58659;49.050;8.530;2022-12-20T15:19:18;99718.16;;;6.53
70389;BMP280;58659;49.050;8.530;2022-12-20T15:21:44;99722.56;;;6.52
70389;BMP280;58659;49.050;8.530;2022-12-20T15:24:23;99721.06;;;6.51
70389;BMP280;58659;49.050;8.530;2022-12-20T15:26:49;99696.03;;;6.35
70389;BMP280;58659;49.050;8.530;2022-12-20T15:29:17;99688.09;;;6.31
70389;BMP280;58659;49.050;8.530;2022-12-20T15:31:43;99692.97;;;6.33
70389;BMP280;58659;49.050;8.530;2022-12-20T15:34:16;99688.00;;;6.28
70389;BMP280;58659;49.050;8.530;2022-12-20T15:36:42;99681.59;;;6.25
70389;BMP280;58659;49.050;8.530;2022-12-20T15:39:09;99688.78;;;6.28
70389;BMP280;58659;49.050;8.530;2022-12-20T15:41:36;99681.50;;;6.22
70389;BMP280;58659;49.050;8.530;2022-12-20T15:44:06;99692.22;;;6.32
70389;BMP280;58659;49.050;8.530;2022-12-20T15:46:35;99693.25;;;6.40
70389;BMP280;58659;49.050;8.530;2022-12-20T15:49:01;99698.97;;;6.45
70389;BMP280;58659;49.050;8.530;2022-12-20T15:51:30;99699.75;;;6.58
70389;BMP280;58659;49.050;8.530;2022-12-20T15:53:56;99712.66;;;6.67
70389;BMP280;58659;49.050;8.530;2022-12-20T15:56:23;99724.56;;;6.68
70389;BMP280;58659;49.050;8.530;2022-12-20T15:58:48;99728.41;;;6.62
70389;BMP280;58659;49.050;8.530;2022-12-20T16:01:26;99726.22;;;6.39
70389;BMP280;58659;49.050;8.530;2022-12-20T16:03:53;99710.41;;;6.44
70389;BMP280;58659;49.050;8.530;2022-12-20T16:06:18;99707.63;;;6.49
70389;BMP280;58659;49.050;8.530;2022-12-20T16:08:43;99696.78;;;6.35
70389;BMP280;58659;49.050;8.530;2022-12-20T16:11:29;99686.59;;;6.30
70389;BMP280;58659;49.050;8.530;2022-12-20T16:13:58;99689.44;;;6.37
70389;BMP280;58659;49.050;8.530;2022-12-20T16:16:29;99676.44;;;6.37
70389;BMP280;58659;49.050;8.530;2022-12-20T16:18:55;99679.94;;;6.41
70389;BMP280;58659;49.050;8.530;2022-12-20T16:23:48;99675.63;;;6.57
70389;BMP280;58659;49.050;8.530;2022-12-20T16:26:16;99704.97;;;6.70
70389;BMP280;58659;49.050;8.530;2022-12-20T16:28:43;99712.66;;;6.67